createdAt,value
2017-11-05T00:00:15.701Z,38.80
2017-11-05T00:02:43.022Z,38.93
2017-11-05T00:05:09.946Z,37.33
2017-11-05T00:07:37.749Z,37.70
2017-11-05T00:10:04.673Z,33.60
2017-11-05T00:12:31.566Z,32.47
2017-11-05T00:14:58.899Z,30.90
2017-11-05T00:17:25.789Z,31.23
2017-11-05T00:19:52.698Z,32.30
2017-11-05T00:22:19.592Z,33.30
2017-11-05T00:24:46.577Z,31.93
2017-11-05T00:27:13.527Z,30.27
2017-11-05T00:29:40.434Z,32.60
2017-11-05T00:32:07.427Z,32.80
2017-11-05T00:34:34.738Z,30.40
2017-11-05T00:37:01.694Z,37.07
2017-11-05T00:39:28.619Z,41.10
2017-11-05T00:41:55.502Z,34.50
2017-11-05T00:44:22.472Z,32.30
2017-11-05T00:46:49.781Z,34.63
2017-11-05T00:49:16.768Z,35.90
2017-11-05T00:51:43.690Z,31.90
2017-11-05T00:54:10.587Z,32.90
2017-11-05T00:56:37.475Z,32.40
2017-11-05T00:59:04.394Z,29.87
2017-11-05T01:01:31.746Z,31.33
2017-11-05T01:03:58.659Z,29.30
2017-11-05T01:06:26.011Z,30.07
2017-11-05T01:08:53.311Z,30.57
2017-11-05T01:11:20.214Z,28.97
2017-11-05T01:13:47.522Z,26.70
2017-11-05T01:16:14.453Z,29.47
2017-11-05T01:18:41.346Z,31.60
2017-11-05T01:21:08.243Z,29.80
2017-11-05T01:23:35.158Z,27.33
2017-11-05T01:26:02.469Z,30.37
2017-11-05T01:28:29.446Z,30.57
2017-11-05T01:30:56.750Z,28.70
2017-11-05T01:33:23.674Z,27.60
2017-11-05T01:35:50.566Z,28.20
2017-11-05T01:38:17.458Z,26.63
2017-11-05T01:40:44.375Z,25.53
2017-11-05T01:43:11.265Z,26.37
2017-11-05T01:45:38.178Z,28.23
2017-11-05T01:48:05.471Z,30.63
2017-11-05T01:50:32.358Z,30.20
2017-11-05T01:52:59.285Z,29.17
2017-11-05T01:55:26.174Z,28.03
2017-11-05T01:57:53.458Z,27.87
2017-11-05T02:00:20.386Z,28.43
2017-11-05T02:02:47.676Z,31.63
2017-11-05T02:05:14.580Z,29.17
2017-11-05T02:07:41.917Z,31.83
2017-11-05T02:10:08.823Z,29.40
2017-11-05T02:12:35.713Z,28.40
2017-11-05T02:15:02.662Z,31.00
2017-11-05T02:17:29.547Z,31.77
2017-11-05T02:19:56.426Z,30.27
2017-11-05T02:22:23.341Z,33.60
2017-11-05T02:24:50.257Z,41.43
2017-11-05T02:27:17.565Z,41.60
2017-11-05T02:29:44.449Z,35.60
2017-11-05T02:32:11.754Z,32.60
2017-11-05T02:34:38.642Z,36.53
2017-11-05T02:37:05.945Z,34.60
2017-11-05T02:39:32.854Z,34.70
2017-11-05T02:42:00.138Z,37.73
2017-11-05T02:44:27.048Z,38.80
2017-11-05T02:46:54.337Z,40.37
2017-11-05T02:49:21.249Z,41.80
2017-11-05T02:51:48.559Z,38.47
2017-11-05T02:54:15.446Z,39.60
2017-11-05T02:56:42.756Z,30.70
2017-11-05T02:59:09.665Z,43.33
2017-11-05T03:01:36.582Z,36.90
2017-11-05T03:04:03.470Z,41.90
2017-11-05T03:06:30.390Z,35.23
2017-11-05T03:08:57.698Z,43.77
2017-11-05T03:11:24.586Z,38.00
2017-11-05T03:13:51.891Z,42.87
2017-11-05T03:16:18.804Z,37.67
2017-11-05T03:18:45.695Z,44.70
2017-11-05T03:21:12.622Z,36.23
2017-11-05T03:23:39.501Z,40.10
2017-11-05T03:26:06.411Z,37.40
2017-11-05T03:28:33.327Z,47.10
2017-11-05T03:31:00.639Z,45.60
2017-11-05T03:33:27.556Z,39.60
2017-11-05T03:35:54.469Z,40.07
2017-11-05T03:38:22.154Z,35.30
2017-11-05T03:40:49.071Z,37.20
2017-11-05T03:43:16.354Z,35.30
2017-11-05T03:45:43.283Z,40.70
2017-11-05T03:48:10.170Z,34.40
2017-11-05T03:50:37.061Z,39.00
2017-11-05T03:53:04.371Z,42.10
2017-11-05T03:55:31.523Z,35.63
2017-11-05T03:57:58.442Z,40.27
2017-11-05T04:00:25.346Z,41.40
2017-11-05T04:02:52.239Z,36.07
2017-11-05T04:05:19.153Z,39.83
2017-11-05T04:07:46.433Z,38.13
2017-11-05T04:10:13.378Z,36.00
2017-11-05T04:12:40.273Z,35.17
2017-11-05T04:15:07.272Z,38.03
2017-11-05T04:17:34.186Z,36.43
2017-11-05T04:20:01.515Z,39.53
2017-11-05T04:22:28.414Z,33.97
2017-11-05T04:24:55.310Z,35.43
2017-11-05T04:27:22.216Z,34.00
2017-11-05T04:29:49.113Z,35.40
2017-11-05T04:32:16.426Z,33.10
2017-11-05T04:34:43.315Z,36.90
2017-11-05T04:37:10.654Z,35.40
2017-11-05T04:39:37.554Z,39.23
2017-11-05T04:42:04.475Z,38.70
2017-11-05T04:44:31.790Z,37.40
2017-11-05T04:46:58.677Z,37.90
2017-11-05T04:49:26.002Z,38.43
2017-11-05T04:51:52.911Z,38.33
2017-11-05T04:54:19.812Z,34.33
2017-11-05T04:56:47.113Z,31.03
2017-11-05T04:59:14.047Z,30.40
2017-11-05T05:01:40.930Z,30.70
2017-11-05T05:04:07.854Z,28.90
2017-11-05T05:06:34.773Z,37.77
2017-11-05T05:09:01.661Z,30.17
2017-11-05T05:11:28.595Z,32.20
2017-11-05T05:13:55.522Z,33.50
2017-11-05T05:16:22.409Z,33.40
2017-11-05T05:18:49.326Z,28.03
2017-11-05T05:21:16.226Z,32.77
2017-11-05T05:23:43.514Z,34.17
2017-11-05T05:26:10.430Z,32.00
2017-11-05T05:28:37.734Z,38.43
2017-11-05T05:31:04.622Z,37.67
2017-11-05T05:33:31.942Z,31.77
2017-11-05T05:35:58.857Z,35.50
2017-11-05T05:38:25.749Z,35.80
2017-11-05T05:40:52.666Z,31.47
2017-11-05T05:43:19.578Z,37.03
2017-11-05T05:45:46.895Z,35.10
2017-11-05T05:48:13.786Z,32.53
2017-11-05T05:50:40.702Z,34.40
2017-11-05T05:53:07.613Z,33.17
2017-11-05T05:55:34.502Z,33.77
2017-11-05T05:58:01.826Z,40.03
2017-11-05T06:00:28.714Z,36.20
2017-11-05T06:02:55.997Z,32.67
2017-11-05T06:05:22.914Z,33.07
2017-11-05T06:07:49.830Z,30.03
2017-11-05T06:10:16.762Z,29.67
2017-11-05T06:12:43.659Z,29.63
2017-11-05T06:15:10.555Z,41.17
2017-11-05T06:17:37.478Z,32.17
2017-11-05T06:20:04.361Z,28.83
2017-11-05T06:22:31.283Z,32.00
2017-11-05T06:24:58.179Z,27.60
2017-11-05T06:27:25.488Z,26.93
2017-11-05T06:29:52.377Z,23.63
2017-11-05T06:32:19.681Z,25.70
2017-11-05T06:34:46.594Z,24.93
2017-11-05T06:37:13.482Z,25.00
2017-11-05T06:39:40.414Z,20.00
2017-11-05T06:42:07.311Z,20.80
2017-11-05T06:44:34.594Z,22.53
2017-11-05T06:47:01.522Z,21.87
2017-11-05T06:49:28.421Z,19.90
2017-11-05T06:51:55.310Z,21.27
2017-11-05T06:54:22.224Z,19.00
2017-11-05T06:56:49.112Z,22.20
2017-11-05T06:59:16.035Z,20.03
2017-11-05T07:01:43.323Z,19.40
2017-11-05T07:04:10.218Z,18.93
2017-11-05T07:06:37.137Z,18.10
2017-11-05T07:09:04.026Z,22.60
2017-11-05T07:11:30.910Z,19.10
2017-11-05T07:13:57.821Z,21.10
2017-11-05T07:16:25.133Z,17.13
2017-11-05T07:18:52.061Z,20.57
2017-11-05T07:21:18.961Z,22.60
2017-11-05T07:23:46.246Z,20.80
2017-11-05T07:26:13.166Z,16.77
2017-11-05T07:28:40.454Z,19.10
2017-11-05T07:31:07.378Z,18.60
2017-11-05T07:33:34.266Z,21.20
2017-11-05T07:36:01.170Z,22.00
2017-11-05T07:38:28.083Z,21.40
2017-11-05T07:40:54.971Z,18.83
2017-11-05T07:43:21.877Z,19.57
2017-11-05T07:45:49.154Z,24.57
2017-11-05T07:48:16.069Z,24.20
2017-11-05T07:50:42.990Z,20.30
2017-11-05T07:53:09.879Z,21.67
2017-11-05T07:55:37.166Z,22.03
2017-11-05T07:58:04.070Z,21.60
2017-11-05T08:00:31.385Z,21.70
2017-11-05T08:02:58.280Z,24.80
2017-11-05T08:05:25.567Z,25.80
2017-11-05T08:07:52.474Z,24.27
2017-11-05T08:10:19.864Z,26.40
2017-11-05T08:12:46.754Z,29.30
2017-11-05T08:15:13.666Z,34.10
2017-11-05T08:17:40.551Z,18.83
2017-11-05T08:20:07.869Z,3.10
2017-11-05T08:22:34.756Z,4.30
2017-11-05T08:25:01.658Z,2.03
2017-11-05T08:27:28.545Z,1.53
2017-11-05T08:29:55.443Z,1.33
2017-11-05T08:32:22.325Z,1.67
2017-11-05T08:34:49.241Z,1.80
2017-11-05T08:37:16.126Z,1.50
2017-11-05T08:39:43.478Z,1.30
2017-11-05T08:42:10.359Z,1.60
2017-11-05T08:44:37.239Z,0.93
2017-11-05T08:47:04.171Z,1.40
2017-11-05T08:49:31.054Z,1.50
2017-11-05T08:51:57.929Z,1.50
2017-11-05T08:54:25.237Z,1.67
2017-11-05T08:56:52.151Z,1.40
2017-11-05T08:59:19.089Z,1.77
2017-11-05T09:01:46.029Z,1.47
2017-11-05T09:04:12.946Z,1.50
2017-11-05T09:06:39.834Z,1.77
2017-11-05T09:09:06.766Z,1.60
2017-11-05T09:11:33.863Z,1.50
2017-11-05T09:14:00.817Z,1.30
2017-11-05T09:16:27.728Z,1.50
2017-11-05T09:18:54.641Z,1.73
2017-11-05T09:21:21.542Z,1.67
2017-11-05T09:23:48.573Z,1.60
2017-11-05T09:26:15.476Z,1.40
2017-11-05T09:28:42.773Z,2.00
2017-11-05T09:31:09.674Z,1.83
2017-11-05T09:33:36.586Z,1.97
2017-11-05T09:36:03.469Z,1.93
2017-11-05T09:38:30.780Z,1.97
2017-11-05T09:40:57.664Z,1.80
2017-11-05T09:43:24.575Z,1.60
2017-11-05T09:45:51.454Z,2.30
2017-11-05T09:48:18.375Z,2.20
2017-11-05T09:50:45.347Z,2.10
2017-11-05T09:53:12.239Z,2.33
2017-11-05T09:55:39.165Z,2.30
2017-11-05T09:58:06.438Z,2.23
2017-11-05T10:00:33.315Z,2.83
2017-11-05T10:03:00.223Z,2.03
2017-11-05T10:05:27.114Z,1.03
2017-11-05T10:07:54.091Z,1.80
2017-11-05T10:10:21.477Z,2.00
2017-11-05T10:12:48.357Z,2.07
2017-11-05T10:15:15.290Z,2.20
2017-11-05T10:17:42.270Z,2.50
2017-11-05T10:20:09.554Z,2.17
2017-11-05T10:22:36.471Z,2.47
2017-11-05T10:25:03.391Z,2.50
2017-11-05T10:27:30.267Z,2.00
2017-11-05T10:29:57.145Z,2.60
2017-11-05T10:32:24.058Z,2.40
2017-11-05T10:34:51.022Z,2.87
2017-11-05T10:37:18.352Z,2.20
2017-11-05T10:39:45.266Z,1.97
2017-11-05T10:42:12.150Z,1.83
2017-11-05T10:44:39.476Z,2.20
2017-11-05T10:47:06.364Z,1.70
2017-11-05T10:49:33.702Z,1.83
2017-11-05T10:52:00.585Z,1.60
2017-11-05T10:54:27.534Z,1.83
2017-11-05T10:56:54.482Z,2.33
2017-11-05T10:59:21.378Z,1.90
2017-11-05T11:01:48.322Z,2.50
2017-11-05T11:04:15.274Z,2.13
2017-11-05T11:06:42.198Z,1.90
2017-11-05T11:09:09.121Z,2.00
2017-11-05T11:11:36.005Z,2.20
2017-11-05T11:14:02.895Z,1.70
2017-11-05T11:16:29.814Z,2.20
2017-11-05T11:18:57.094Z,1.80
2017-11-05T11:21:24.022Z,1.70
2017-11-05T11:23:51.366Z,2.23
2017-11-05T11:26:18.654Z,2.10
2017-11-05T11:28:45.562Z,2.10
2017-11-05T11:31:12.852Z,2.20
2017-11-05T11:33:39.762Z,2.07
2017-11-05T11:36:06.705Z,1.70
2017-11-05T11:38:33.613Z,2.07
2017-11-05T11:41:00.497Z,1.90
2017-11-05T11:43:27.419Z,2.10
2017-11-05T11:45:54.309Z,1.93
2017-11-05T11:48:21.906Z,1.60
2017-11-05T11:50:49.276Z,1.90
2017-11-05T11:53:16.164Z,2.00
2017-11-05T11:55:43.505Z,2.20
2017-11-05T11:58:10.405Z,2.57
2017-11-05T12:00:37.297Z,3.00
2017-11-05T12:03:04.214Z,2.03
2017-11-05T12:05:31.097Z,2.13
2017-11-05T12:07:58.387Z,2.30
2017-11-05T12:10:25.289Z,2.30
2017-11-05T12:12:52.187Z,2.60
2017-11-05T12:15:19.130Z,2.40
2017-11-05T12:17:46.015Z,2.20
2017-11-05T12:20:12.926Z,2.17
2017-11-05T12:22:39.813Z,2.00
2017-11-05T12:25:06.765Z,2.30
2017-11-05T12:27:33.682Z,1.83
2017-11-05T12:30:00.636Z,2.23
2017-11-05T12:32:27.545Z,1.93
2017-11-05T12:34:54.423Z,1.70
2017-11-05T12:37:21.333Z,2.40
2017-11-05T12:39:48.213Z,2.67
2017-11-05T12:42:15.142Z,2.40
2017-11-05T12:44:42.030Z,2.70
2017-11-05T12:47:09.330Z,2.70
2017-11-05T12:49:36.233Z,2.87
2017-11-05T12:52:03.525Z,2.97
2017-11-05T12:54:30.525Z,3.30
2017-11-05T12:56:57.474Z,3.77
2017-11-05T12:59:24.421Z,3.60
2017-11-05T13:01:51.381Z,3.80
2017-11-05T13:04:18.329Z,4.10
2017-11-05T13:06:45.666Z,3.60
2017-11-05T13:09:12.549Z,4.20
2017-11-05T13:11:39.565Z,4.50
2017-11-05T13:14:06.502Z,4.07
2017-11-05T13:16:33.406Z,4.50
2017-11-05T13:19:00.289Z,4.87
2017-11-05T13:21:27.242Z,4.07
2017-11-05T13:23:54.132Z,3.87
2017-11-05T13:26:21.045Z,4.47
2017-11-05T13:28:47.920Z,4.70
2017-11-05T13:31:14.837Z,4.60
2017-11-05T13:33:42.187Z,4.60
2017-11-05T13:36:09.094Z,4.40
2017-11-05T13:38:36.019Z,4.57
2017-11-05T13:41:02.899Z,4.73
2017-11-05T13:43:29.805Z,4.90
2017-11-05T13:45:56.714Z,5.33
2017-11-05T13:48:24.049Z,4.80
2017-11-05T13:50:50.945Z,4.97
2017-11-05T13:53:17.834Z,3.93
2017-11-05T13:55:44.746Z,4.20
2017-11-05T13:58:11.662Z,5.00
2017-11-05T14:00:38.958Z,4.10
2017-11-05T14:03:05.871Z,4.80
2017-11-05T14:05:32.821Z,4.00
2017-11-05T14:07:59.726Z,4.60
2017-11-05T14:10:26.607Z,4.53
2017-11-05T14:12:53.534Z,4.13
2017-11-05T14:15:20.818Z,4.50
2017-11-05T14:17:47.773Z,4.10
2017-11-05T14:20:14.710Z,4.50
2017-11-05T14:22:41.595Z,4.07
2017-11-05T14:25:08.490Z,4.03
2017-11-05T14:27:35.454Z,4.10
2017-11-05T14:30:02.365Z,4.20
2017-11-05T14:32:29.719Z,4.43
2017-11-05T14:34:57.022Z,4.23
2017-11-05T14:37:23.929Z,4.77
2017-11-05T14:39:51.246Z,4.50
2017-11-05T14:42:18.122Z,3.53
2017-11-05T14:44:45.411Z,4.97
2017-11-05T14:47:12.326Z,3.80
2017-11-05T14:49:39.605Z,4.47
2017-11-05T14:52:06.516Z,4.27
2017-11-05T14:54:33.434Z,4.30
2017-11-05T14:57:00.350Z,4.40
2017-11-05T14:59:27.242Z,3.90
2017-11-05T15:01:54.220Z,4.30
2017-11-05T15:04:21.508Z,4.00
2017-11-05T15:06:48.396Z,4.13
2017-11-05T15:09:15.314Z,4.07
2017-11-05T15:11:42.198Z,3.90
2017-11-05T15:14:09.487Z,3.60
2017-11-05T15:16:36.417Z,4.33
2017-11-05T15:19:03.350Z,4.80
2017-11-05T15:21:30.266Z,3.40
2017-11-05T15:23:57.298Z,3.93
2017-11-05T15:26:24.187Z,3.90
2017-11-05T15:28:51.469Z,3.90
2017-11-05T15:31:18.415Z,4.20
2017-11-05T15:33:45.357Z,3.47
2017-11-05T15:36:12.239Z,3.20
2017-11-05T15:38:39.161Z,2.87
2017-11-05T15:41:06.037Z,3.50
2017-11-05T15:43:32.966Z,3.70
2017-11-05T15:45:59.846Z,3.40
2017-11-05T15:48:27.125Z,2.83
2017-11-05T15:50:54.069Z,3.10
2017-11-05T15:53:20.989Z,2.93
2017-11-05T15:55:47.871Z,3.40
2017-11-05T15:58:14.755Z,2.90
2017-11-05T16:00:41.722Z,3.20
2017-11-05T16:03:08.611Z,3.30
2017-11-05T16:05:35.538Z,2.53
2017-11-05T16:08:02.826Z,3.30
2017-11-05T16:10:29.818Z,2.70
2017-11-05T16:12:56.738Z,3.00
2017-11-05T16:15:23.621Z,2.60
2017-11-05T16:17:50.978Z,3.23
2017-11-05T16:20:18.356Z,3.17
2017-11-05T16:22:45.242Z,3.03
2017-11-05T16:25:12.166Z,4.10
2017-11-05T16:27:39.045Z,3.73
2017-11-05T16:30:05.942Z,3.43
2017-11-05T16:32:32.870Z,3.13
2017-11-05T16:34:59.753Z,3.37
2017-11-05T16:37:28.642Z,3.73
2017-11-05T16:39:56.293Z,3.07
2017-11-05T16:42:23.194Z,3.47
2017-11-05T16:44:50.125Z,3.53
2017-11-05T16:47:17.030Z,3.00
2017-11-05T16:49:44.016Z,3.80
2017-11-05T16:52:10.966Z,3.27
2017-11-05T16:54:37.844Z,3.90
2017-11-05T16:57:04.858Z,4.37
2017-11-05T16:59:31.751Z,4.30
2017-11-05T17:01:58.649Z,4.93
2017-11-05T17:04:25.979Z,4.30
2017-11-05T17:06:52.878Z,4.30
2017-11-05T17:09:19.802Z,4.40
2017-11-05T17:11:47.140Z,5.77
2017-11-05T17:14:14.064Z,4.87
2017-11-05T17:16:40.950Z,4.60
2017-11-05T17:19:07.853Z,4.10
2017-11-05T17:21:34.758Z,4.40
2017-11-05T17:24:02.066Z,4.07
2017-11-05T17:26:28.946Z,5.17
2017-11-05T17:28:56.262Z,5.53
2017-11-05T17:31:23.174Z,4.60
2017-11-05T17:33:50.082Z,4.60
2017-11-05T17:36:16.994Z,4.80
2017-11-05T17:38:43.885Z,4.33
2017-11-05T17:41:11.237Z,4.40
2017-11-05T17:43:38.142Z,4.43
2017-11-05T17:46:05.418Z,3.33
2017-11-05T17:48:32.796Z,3.83
2017-11-05T17:51:00.067Z,4.30
2017-11-05T17:53:26.954Z,3.50
2017-11-05T17:55:53.860Z,4.23
2017-11-05T17:58:20.741Z,4.20
2017-11-05T18:00:48.533Z,3.73
2017-11-05T18:03:15.830Z,4.03
2017-11-05T18:05:42.722Z,3.87
2017-11-05T18:08:09.642Z,3.90
2017-11-05T18:10:36.555Z,3.63
2017-11-05T18:13:03.446Z,3.73
2017-11-05T18:15:30.378Z,3.60
2017-11-05T18:17:57.258Z,3.70
2017-11-05T18:20:24.542Z,4.23
2017-11-05T18:22:51.474Z,3.80
2017-11-05T18:25:18.750Z,3.77
2017-11-05T18:27:45.746Z,3.80
2017-11-05T18:30:12.629Z,3.63
2017-11-05T18:32:39.667Z,3.57
2017-11-05T18:35:06.602Z,3.13
2017-11-05T18:37:33.947Z,3.53
2017-11-05T18:40:00.838Z,3.00
2017-11-05T18:42:27.766Z,2.70
2017-11-05T18:44:54.658Z,3.43
2017-11-05T18:47:21.631Z,3.00
2017-11-05T18:49:48.574Z,3.00
2017-11-05T18:52:15.475Z,2.80
2017-11-05T18:54:42.369Z,2.77
2017-11-05T18:57:09.308Z,3.43
2017-11-05T18:59:36.279Z,3.03
2017-11-05T19:02:03.571Z,3.23
2017-11-05T19:04:30.500Z,3.00
2017-11-05T19:06:57.814Z,4.20
2017-11-05T19:09:24.734Z,3.10
2017-11-05T19:11:51.634Z,3.80
2017-11-05T19:14:18.946Z,4.23
2017-11-05T19:16:45.826Z,3.50
2017-11-05T19:19:12.766Z,4.07
2017-11-05T19:21:39.655Z,4.40
2017-11-05T19:24:06.542Z,3.43
2017-11-05T19:26:33.510Z,3.53
2017-11-05T19:29:00.428Z,3.60
2017-11-05T19:31:27.338Z,3.87
2017-11-05T19:33:54.240Z,4.13
2017-11-05T19:36:21.185Z,3.80
2017-11-05T19:38:48.110Z,3.77
2017-11-05T19:41:15.006Z,3.20
2017-11-05T19:43:42.283Z,4.20
2017-11-05T19:46:09.204Z,3.60
2017-11-05T19:48:36.482Z,3.90
2017-11-05T19:51:03.390Z,4.40
2017-11-05T19:53:30.689Z,3.87
2017-11-05T19:55:57.604Z,3.70
2017-11-05T19:58:24.883Z,3.60
2017-11-05T20:00:51.766Z,4.47
2017-11-05T20:03:18.685Z,4.40
2017-11-05T20:05:48.645Z,3.77
2017-11-05T20:08:15.538Z,4.60
2017-11-05T20:10:42.426Z,4.53
2017-11-05T20:13:09.446Z,4.50
2017-11-05T20:15:36.415Z,4.40
2017-11-05T20:18:03.358Z,4.50
2017-11-05T20:20:30.636Z,4.00
2017-11-05T20:22:57.522Z,4.03
2017-11-05T20:25:24.440Z,4.00
2017-11-05T20:27:51.352Z,4.30
2017-11-05T20:30:18.641Z,4.63
2017-11-05T20:32:45.542Z,5.13
2017-11-05T20:35:12.834Z,4.83
2017-11-05T20:37:39.751Z,5.40
2017-11-05T20:40:07.070Z,5.00
2017-11-05T20:42:33.951Z,4.60
2017-11-05T20:45:01.291Z,4.50
2017-11-05T20:47:28.645Z,4.67
2017-11-05T20:49:55.611Z,4.77
2017-11-05T20:52:22.949Z,4.60
2017-11-05T20:54:49.871Z,5.00
2017-11-05T20:57:16.837Z,6.00
2017-11-05T20:59:43.732Z,5.37
2017-11-05T21:02:10.620Z,6.20
2017-11-05T21:04:37.579Z,5.30
2017-11-05T21:07:04.890Z,4.67
2017-11-05T21:09:31.797Z,4.77
2017-11-05T21:11:59.119Z,4.60
2017-11-05T21:14:26.008Z,4.47
2017-11-05T21:16:53.321Z,5.43
2017-11-05T21:19:20.213Z,5.33
2017-11-05T21:21:47.532Z,5.20
2017-11-05T21:24:14.467Z,5.30
2017-11-05T21:26:41.366Z,4.90
2017-11-05T21:29:08.713Z,5.10
2017-11-05T21:31:35.642Z,5.80
2017-11-05T21:34:03.014Z,5.00
2017-11-05T21:36:30.285Z,5.97
2017-11-05T21:38:57.208Z,6.03
2017-11-05T21:41:24.163Z,6.80
2017-11-05T21:43:51.462Z,5.30
2017-11-05T21:46:18.350Z,5.97
2017-11-05T21:48:45.672Z,5.33
2017-11-05T21:51:12.600Z,5.57
2017-11-05T21:53:39.501Z,6.17
2017-11-05T21:56:06.422Z,5.60
2017-11-05T21:58:33.329Z,5.50
2017-11-05T22:01:00.234Z,5.80
2017-11-05T22:03:27.123Z,6.13
2017-11-05T22:05:56.545Z,5.83
2017-11-05T22:11:13.948Z,5.53
2017-11-05T22:13:40.829Z,5.30
2017-11-05T22:16:07.750Z,5.90
2017-11-05T22:18:34.737Z,5.60
2017-11-05T22:21:01.682Z,5.67
2017-11-05T22:23:28.638Z,5.80
2017-11-05T22:25:55.996Z,5.70
2017-11-05T22:28:22.897Z,6.20
2017-11-05T22:30:49.887Z,6.43
2017-11-05T22:33:17.191Z,6.20
2017-11-05T22:35:44.081Z,6.95
2017-11-05T22:38:10.986Z,6.07
2017-11-05T22:40:37.895Z,7.17
2017-11-05T22:43:05.201Z,6.17
2017-11-05T22:45:32.116Z,6.00
2017-11-05T22:47:59.184Z,6.50
2017-11-05T22:50:26.117Z,6.77
2017-11-05T22:52:53.409Z,5.87
2017-11-05T22:55:20.310Z,6.60
2017-11-05T22:57:47.666Z,6.20
2017-11-05T23:00:17.505Z,7.40
2017-11-05T23:02:44.414Z,6.83
2017-11-05T23:05:11.340Z,7.13
2017-11-05T23:07:38.226Z,6.27
2017-11-05T23:10:05.571Z,6.10
2017-11-05T23:12:32.882Z,7.40
2017-11-05T23:14:59.874Z,7.00
2017-11-05T23:17:26.818Z,6.20
2017-11-05T23:19:53.762Z,6.80
2017-11-05T23:22:20.680Z,7.13
2017-11-05T23:24:47.561Z,6.67
2017-11-05T23:27:14.878Z,6.10
2017-11-05T23:29:41.761Z,6.80
2017-11-05T23:32:08.697Z,5.87
2017-11-05T23:34:35.578Z,5.30
2017-11-05T23:37:02.499Z,6.20
2017-11-05T23:39:29.789Z,5.70
2017-11-05T23:41:56.678Z,5.90
2017-11-05T23:44:24.026Z,5.57
2017-11-05T23:46:50.929Z,5.97
2017-11-05T23:49:17.842Z,5.90
2017-11-05T23:51:44.777Z,5.40
2017-11-05T23:54:11.682Z,6.20
2017-11-05T23:56:38.626Z,5.57
2017-11-05T23:59:05.519Z,5.73
